Time;durP1;ratioP1;P1;durP2;ratioP2;P2;SDS_P1;SDS_P2;PMS_P1;PMS_P2;Temp;Humidity;BMP_temperature;BMP_pressure;BME280_temperature;BME280_humidity;BME280_pressure;Samples;Min_cycle;Max_cycle;Signal;HPM_P1;HPM_P2
2021/03/30 00:02:00;;;;;;;14.48;3.80;;;12.80;64.30;;;;;;4962051;29;20053;-81
2021/03/30 00:04:29;;;;;;;10.70;2.65;;;12.80;64.60;;;;;;4960759;28;20055;-81
2021/03/30 00:07:00;;;;;;;7.97;3.50;;;12.80;64.80;;;;;;4998912;28;20043;-81
2021/03/30 00:09:50;;;;;;;9.38;3.10;;;12.80;65.20;;;;;;4967755;28;20073;-80
2021/03/30 00:12:18;;;;;;;10.23;3.30;;;12.80;65.20;;;;;;4949472;29;20069;-81
2021/03/30 00:14:50;;;;;;;9.15;3.42;;;12.70;65.30;;;;;;4957972;29;20055;-80
2021/03/30 00:17:29;;;;;;;9.52;3.22;;;12.70;65.50;;;;;;4939013;29;20047;-80
2021/03/30 00:20:10;;;;;;;;;;;;;;;;;;;;;
2021/03/30 00:22:46;;;;;;;10.32;3.70;;;12.60;66.10;;;;;;4960721;28;20054;-81
2021/03/30 00:25:36;;;;;;;9.77;3.28;;;12.50;66.40;;;;;;4969972;29;20066;-82
2021/03/30 00:28:40;;;;;;;8.73;3.05;;;12.50;66.70;;;;;;4956392;29;20051;-81
2021/03/30 00:31:18;;;;;;;7.40;3.40;;;12.40;67.30;;;;;;4934475;28;20062;-83
2021/03/30 00:33:59;;;;;;;9.70;3.10;;;12.30;67.40;;;;;;4961058;29;20059;-83
2021/03/30 00:36:36;;;;;;;9.25;3.88;;;12.40;67.70;;;;;;4974615;29;20475;-83
2021/03/30 00:39:07;;;;;;;10.77;3.33;;;12.30;67.90;;;;;;4962100;28;20051;-83
2021/03/30 00:42:28;;;;;;;;;;;;;;;;;;;;;
2021/03/30 00:45:51;;;;;;;8.38;3.22;;;12.30;68.20;;;;;;4960859;28;20054;-83
2021/03/30 00:49:03;;;;;;;8.40;3.22;;;12.30;68.60;;;;;;4973068;28;20069;-84
2021/03/30 00:51:41;;;;;;;8.40;3.30;;;12.20;69.00;;;;;;4957208;29;20051;-81
2021/03/30 00:55:00;;;;;;;16.23;3.65;;;12.20;69.50;;;;;;4974384;28;20068;-84
2021/03/30 00:57:41;;;;;;;11.30;3.55;;;12.10;69.90;;;;;;4978857;28;20047;-83
2021/03/30 01:03:55;;;;;;;8.02;3.58;;;12.10;70.60;;;;;;4976572;28;20050;-84
2021/03/30 01:07:11;;;;;;;;;;;;;;;;;;;;;
2021/03/30 01:10:34;;;;;;;7.50;3.05;;;12.00;71.40;;;;;;4900524;29;20056;-82
2021/03/30 01:14:21;;;;;;;9.35;3.47;;;11.90;72.00;;;;;;4885593;29;20052;-81
2021/03/30 01:17:07;;;;;;;10.45;3.67;;;11.70;72.70;;;;;;4886323;29;20048;-85
2021/03/30 01:20:27;;;;;;;6.38;3.08;;;11.70;73.80;;;;;;4899398;29;20063;-83
2021/03/30 01:23:41;;;;;;;8.32;3.67;;;11.70;74.60;;;;;;4859302;29;20060;-82
2021/03/30 01:27:08;;;;;;;12.32;4.28;;;11.70;75.30;;;;;;4886685;29;20060;-83
2021/03/30 01:30:15;;;;;;;8.15;2.97;;;11.60;76.10;;;;;;4882124;29;20032;-83
2021/03/30 01:33:16;;;;;;;8.60;3.15;;;11.50;76.70;;;;;;4906911;29;20048;-85
2021/03/30 01:36:14;;;;;;;8.60;3.03;;;11.50;77.80;;;;;;4925103;28;20066;-82
2021/03/30 01:39:05;;;;;;;14.65;3.45;;;11.50;77.90;;;;;;4938497;29;20066;-85
2021/03/30 01:41:53;;;;;;;10.65;3.38;;;11.50;78.20;;;;;;4944473;29;20055;-81
2021/03/30 01:48:32;;;;;;;;;;;;;;;;;;;;;
2021/03/30 01:54:43;;;;;;;11.82;3.05;;;11.50;78.30;;;;;;4840969;29;20054;-84
2021/03/30 01:57:33;;;;;;;9.05;3.47;;;11.50;78.40;;;;;;4843526;29;20066;-82
2021/03/30 02:00:41;;;;;;;6.75;2.95;;;11.50;78.70;;;;;;4838337;29;20045;-82
2021/03/30 02:03:13;;;;;;;8.55;3.50;;;11.40;79.00;;;;;;4821641;29;20058;-82
2021/03/30 02:06:09;;;;;;;9.40;3.35;;;11.40;79.30;;;;;;4855297;29;20068;-82
2021/03/30 02:08:46;;;;;;;11.40;3.40;;;11.40;79.20;;;;;;4859545;29;20060;-82
2021/03/30 02:11:26;;;;;;;10.52;3.70;;;11.40;79.50;;;;;;4845155;29;20053;-81
2021/03/30 02:14:03;;;;;;;9.25;3.40;;;11.40;80.00;;;;;;4862854;29;20054;-82
2021/03/30 02:16:51;;;;;;;10.95;3.83;;;11.40;80.40;;;;;;4903027;28;20050;-81
2021/03/30 02:19:29;;;;;;;11.82;3.53;;;11.30;80.30;;;;;;4963451;28;20134;-81
2021/03/30 02:22:11;;;;;;;9.82;2.95;;;11.30;80.60;;;;;;4939498;29;20051;-81
2021/03/30 02:25:35;;;;;;;;;;;;;;;;;;;;;
2021/03/30 02:28:33;;;;;;;6.25;2.85;;;11.30;81.20;;;;;;4944517;29;20493;-82
2021/03/30 02:31:25;;;;;;;11.02;3.17;;;11.30;81.30;;;;;;4960938;29;20039;-80
2021/03/30 02:36:32;;;;;;;7.60;3.03;;;11.10;82.50;;;;;;4963359;28;20532;-81
2021/03/30 02:39:12;;;;;;;13.20;3.72;;;11.10;82.80;;;;;;4962267;29;20063;-81
2021/03/30 02:42:06;;;;;;;;;;;;;;;;;;;;;
2021/03/30 02:48:53;;;;;;;7.70;2.83;;;11.20;82.30;;;;;;4927618;29;20032;-82
2021/03/30 02:52:46;;;;;;;7.55;2.85;;;11.20;81.80;;;;;;4930332;29;20285;-84
2021/03/30 02:55:45;;;;;;;17.50;3.80;;;11.20;82.50;;;;;;4925647;29;20028;-82
2021/03/30 02:58:32;;;;;;;8.38;3.33;;;11.10;83.30;;;;;;4924966;29;20062;-83
2021/03/30 03:01:28;;;;;;;13.80;2.97;;;11.10;83.10;;;;;;4910960;29;20052;-84
2021/03/30 03:04:09;;;;;;;9.75;3.20;;;11.10;83.40;;;;;;4909619;29;20054;-81
2021/03/30 03:06:40;;;;;;;11.07;3.40;;;11.00;83.80;;;;;;4924973;29;20052;-81
2021/03/30 03:09:24;;;;;;;10.73;3.80;;;11.00;84.00;;;;;;4926946;29;20054;-81
2021/03/30 03:12:23;;;;;;;8.32;3.50;;;10.90;84.90;;;;;;4916080;29;20048;-83
2021/03/30 03:14:51;;;;;;;14.13;5.10;;;10.80;86.60;;;;;;4905638;29;20062;-85
2021/03/30 03:17:23;;;;;;;10.20;3.47;;;10.50;88.50;;;;;;4915983;29;20389;-86
2021/03/30 03:19:52;;;;;;;10.80;3.47;;;10.30;90.70;;;;;;4921849;29;20075;-85
2021/03/30 03:22:21;;;;;;;8.70;3.72;;;10.20;91.20;;;;;;4905357;29;20055;-86
2021/03/30 03:25:00;;;;;;;8.57;3.80;;;10.00;91.90;;;;;;4943952;29;20480;-87
2021/03/30 03:27:48;;;;;;;12.05;3.20;;;9.90;92.70;;;;;;4943882;29;20054;-87
2021/03/30 03:30:26;;;;;;;11.98;3.78;;;9.70;93.80;;;;;;4936611;29;20047;-83
2021/03/30 03:33:06;;;;;;;7.68;3.30;;;9.80;94.10;;;;;;4946488;29;20055;-83
2021/03/30 03:35:37;;;;;;;14.07;3.67;;;10.10;93.20;;;;;;4977055;28;20057;-83
2021/03/30 03:38:08;;;;;;;11.27;3.28;;;10.40;92.10;;;;;;4977308;29;20055;-82
2021/03/30 03:40:41;;;;;;;12.82;4.05;;;10.60;91.40;;;;;;4946723;29;20041;-84
2021/03/30 03:43:48;;;;;;;;;;;;;;;;;;;;;
2021/03/30 03:46:35;;;;;;;8.70;3.88;;;10.70;90.80;;;;;;4946421;29;20043;-81
2021/03/30 03:49:26;;;;;;;;;;;;;;;;;;;;;
2021/03/30 03:52:30;;;;;;;11.93;3.55;;;10.60;90.90;;;;;;4963285;29;20073;-84
2021/03/30 03:55:24;;;;;;;9.07;3.17;;;10.60;91.10;;;;;;4964507;28;20065;-83
2021/03/30 03:58:35;;;;;;;15.90;3.83;;;10.50;91.20;;;;;;4950082;28;20051;-83
2021/03/30 04:01:53;;;;;;;9.98;3.97;;;10.50;91.60;;;;;;4965219;28;20045;-83
2021/03/30 04:07:20;;;;;;;;;;;10.20;92.80;;;;;;5091155;23;20034;-82
2021/03/30 04:09:58;;;;;;;;;;;10.30;92.80;;;;;;4982770;28;19921;-83
2021/03/30 04:12:34;;;;;;;10.88;3.78;;;10.20;92.90;;;;;;4966975;28;19922;-83
2021/03/30 04:15:04;;;;;;;11.13;3.40;;;10.10;93.70;;;;;;4967791;28;20039;-82
2021/03/30 04:17:39;;;;;;;12.70;3.65;;;10.00;94.20;;;;;;4999379;28;20051;-82
2021/03/30 04:20:14;;;;;;;12.52;3.58;;;10.00;94.30;;;;;;4983708;28;20035;-82
2021/03/30 04:22:46;;;;;;;11.25;3.38;;;10.00;94.10;;;;;;4968014;28;20061;-84
2021/03/30 04:25:31;;;;;;;;;;;;;;;;;;;;;
2021/03/30 04:28:08;;;;;;;16.05;4.50;;;10.10;94.20;;;;;;4967846;28;20051;-83
2021/03/30 04:30:40;;;;;;;14.15;4.63;;;9.90;94.90;;;;;;4999616;28;20036;-81
2021/03/30 04:33:31;;;;;;;14.85;3.40;;;9.90;95.20;;;;;;4967893;28;20038;-82
2021/03/30 04:36:13;;;;;;;11.13;3.80;;;10.00;94.90;;;;;;4968462;28;20039;-82
2021/03/30 04:41:39;;;;;;;11.88;3.80;;;9.90;95.40;;;;;;5134263;23;20055;-83
2021/03/30 04:44:12;;;;;;;12.07;3.55;;;9.90;95.30;;;;;;4964373;29;20080;-82
2021/03/30 04:46:53;;;;;;;14.15;4.45;;;9.90;95.50;;;;;;4948021;29;20057;-85
2021/03/30 05:01:17;;;;;;;23.73;3.30;;;9.70;96.30;;;;;;4892102;29;20053;-81
2021/03/30 05:07:17;;;;;;;;;;;;;;;;;;;;;
2021/03/30 05:11:24;;;;;;;15.73;5.70;;;9.80;96.10;;;;;;4866019;29;20060;-82
2021/03/30 05:15:00;;;;;;;;;;;;;;;;;;;;;
2021/03/30 05:18:06;;;;;;;12.35;4.00;;;9.80;96.20;;;;;;4927873;29;20048;-83
2021/03/30 05:24:13;;;;;;;16.95;4.30;;;9.80;96.30;;;;;;4938491;29;20052;-82
2021/03/30 05:27:37;;;;;;;15.07;4.20;;;9.70;96.90;;;;;;4911664;29;20528;-82
2021/03/30 05:35:22;;;;;;;9.93;3.75;;;9.80;96.90;;;;;;4841070;29;20065;-83
2021/03/30 05:43:16;;;;;;;16.10;4.57;;;9.80;96.50;;;;;;4784841;30;20058;-81
2021/03/30 05:46:19;;;;;;;11.10;3.28;;;9.80;96.50;;;;;;4787340;30;20071;-83
2021/03/30 05:48:53;;;;;;;13.90;3.65;;;9.80;96.70;;;;;;4759286;30;20051;-81
2021/03/30 05:51:51;;;;;;;;;;;;;;;;;;;;;
2021/03/30 05:54:38;;;;;;;13.75;3.58;;;9.80;96.60;;;;;;4773904;30;20084;-82
2021/03/30 05:57:13;;;;;;;18.95;4.18;;;9.90;96.30;;;;;;4765356;30;20051;-82
2021/03/30 06:02:43;;;;;;;14.07;3.67;;;9.90;95.90;;;;;;4761942;30;20175;-81
2021/03/30 06:05:24;;;;;;;;;;;;;;;;;;;;;
2021/03/30 06:08:06;;;;;;;12.70;4.10;;;10.00;95.80;;;;;;4818132;29;20051;-83
2021/03/30 06:10:52;;;;;;;14.63;3.60;;;10.00;95.50;;;;;;4817269;29;20062;-84
2021/03/30 06:20:46;;;;;;;;;;;;;;;;;;;;;
2021/03/30 06:24:29;;;;;;;16.52;3.47;;;10.20;94.40;;;;;;4928591;29;20032;-83
2021/03/30 07:00:59;;;;;;;9.32;3.50;;;11.00;91.70;;;;;;5161794;23;20964;-81
2021/03/30 07:03:32;;;;;;;11.57;4.10;;;11.10;96.40;;;;;;4955011;28;20047;-82
2021/03/30 07:06:11;;;;;;;11.60;3.55;;;11.50;96.10;;;;;;4936227;28;20058;-80
2021/03/30 07:08:42;;;;;;;10.77;3.78;;;11.70;93.50;;;;;;4948788;28;20053;-82
2021/03/30 07:11:09;;;;;;;12.07;3.88;;;11.80;94.10;;;;;;4989749;28;20073;-80
2021/03/30 07:13:36;;;;;;;9.95;3.85;;;11.90;92.20;;;;;;4970674;28;20046;-81
